KAUG

Augusta State Airport

Augusta, Maine, USA
METAR KAUG 201153Z AUTO VRB03KT 10SM CLR M02/M06 A2956 RMK AO2 SLP013 70002 T10221061 11022 21028 56040
Observed Flight Rules
Jan-20 @ 11:53 UTC (an hour ago) Visual Flight Rules
Wind Visibility Clouds
Variable at 3 knots 10 miles
  • Clear skies
Temperatures Readings
Current -2°C / 28°F
Dewpoint -6°C / 21°F
Humidity 74%
Altimeter 29.56" Hg
Pressure 1001.3 hPa
Elevation 109
METAR KAUG 201153Z AUTO VRB03KT 10SM CLR M02/M06 A2956 RMK AO2 SLP013 70002 T10221061 11022 21028 56040
Observed Flight Rules
Jan-20 @ 11:53 UTC
(an hour ago)
VFR
Wind Visibility
Variable at 3 knots 10 miles
Clouds
  • Clear skies
Temperature Dewpoint
-2°C / 28°F -6°C / 21°F
Humidity Altimeter Pressure
74% 29.56" Hg 1001.3 hPa